Durand, IL (61024)

5:43 AM CST on February 01, 2015 (GMT -0600)
Hawkeye Observatory | Change Station
CLOSE
Current Station
Personal Weather Station
Location: Durand, IL
Elevation: 758 ft
Nearby Weather Stations
Active Advisory: Winter Storm Warning Active Notice: Local Storm Report

Elev 758 ft 42.44 °N, 89.33 °W | Updated 3 minutes ago

Snow
Snow
26.9 °F
Feels Like 13 °F
N
20.0
Wind Variable Wind from ENE
Gusts 23.0 mph

Today
High -- | Low -- °F
--% Chance of Precip.
Yesterday
High -- | Low -- °F
Precip. -- in
7:11 AM 5:10 PM
Waxing Gibbous, 94% visible
Pressure 29.99 in
Visibility 2.5 miles
Clouds Overcast 600 ft
Windchill 13 °F
Dew Point 24 °F
Humidity 89%
Rainfall 0.00 in
Snow Depth Not available.
UV 0 out of 12
Pollen .10 out of 12
Air Quality Not available.
Flu Activity Not available.
METAR KEFT 011115Z AUTO 05015G20KT 2 1/2SM -SN OVC006 M03/M04 A2999 RMK AO2

More Conditions Fewer Conditions

Pressure 29.99 in
Visibility 2.5 miles
Clouds Overcast 600 ft
Windchill 13 °F
Dew Point 24 °F
Humidity 89%
Rainfall 0.00 in
Snow Depth Not available.
UV 0 out of 12
Pollen .10 out of 12
Air Quality Not available.
Flu Activity Not available.
METAR KEFT 011115Z AUTO 05015G20KT 2 1/2SM -SN OVC006 M03/M04 A2999 RMK AO2

More Conditions Fewer Conditions

10-Day Weather Forecast

Almanac

Astronomy

Feb. 01, 2015 Rise Set
Actual Time
Civil Twilight
Nautical Twilight
Astronomical Twilight
Moon
Length of Visible Light
Length of Day
Tomorrow will be .
, % of the Moon is Illuminated

Today's Extremes

State Highs State Lows

Community

WunderPhotos

Upload Photos

1,792,346 photos uploaded!

WunderBlogs® & News

Nearby

Air Quality

  Air Quality AQ Index Pollutant
Not available.

Snow Depth

Station Depth Elevation

Earthquake Activity

City Distance Mag. Time & Date
Minimum magnitude displayed is 2.5.

Coastal Water Temperatures

Place Temperature

Nearby Weather Stations